sensor_id;sensor_type;location;lat;lon;timestamp;P1;durP1;ratioP1;P2;durP2;ratioP2
75990;SDS011;64673;52.276;10.560;2023-12-20T00:01:15;3.75;;;1.38;;
75990;SDS011;64673;52.276;10.560;2023-12-20T00:03:41;4.60;;;2.05;;
75990;SDS011;64673;52.276;10.560;2023-12-20T00:06:06;4.88;;;2.17;;
75990;SDS011;64673;52.276;10.560;2023-12-20T00:08:32;2.55;;;1.13;;
75990;SDS011;64673;52.276;10.560;2023-12-20T00:10:57;5.15;;;1.55;;
75990;SDS011;64673;52.276;10.560;2023-12-20T00:13:22;3.05;;;1.70;;
75990;SDS011;64673;52.276;10.560;2023-12-20T00:15:48;2.47;;;1.45;;
75990;SDS011;64673;52.276;10.560;2023-12-20T00:18:13;2.30;;;1.15;;
75990;SDS011;64673;52.276;10.560;2023-12-20T00:20:38;2.60;;;1.23;;
75990;SDS011;64673;52.276;10.560;2023-12-20T00:23:04;2.42;;;1.23;;
75990;SDS011;64673;52.276;10.560;2023-12-20T00:25:29;4.05;;;1.75;;
75990;SDS011;64673;52.276;10.560;2023-12-20T00:27:54;2.97;;;1.65;;
75990;SDS011;64673;52.276;10.560;2023-12-20T00:30:20;7.68;;;2.70;;
75990;SDS011;64673;52.276;10.560;2023-12-20T00:32:45;3.25;;;2.28;;
75990;SDS011;64673;52.276;10.560;2023-12-20T00:35:13;3.90;;;2.78;;
75990;SDS011;64673;52.276;10.560;2023-12-20T00:37:39;4.65;;;2.58;;
75990;SDS011;64673;52.276;10.560;2023-12-20T00:40:04;6.80;;;2.50;;
75990;SDS011;64673;52.276;10.560;2023-12-20T00:42:31;2.92;;;1.75;;
75990;SDS011;64673;52.276;10.560;2023-12-20T00:44:57;2.15;;;1.35;;
75990;SDS011;64673;52.276;10.560;2023-12-20T00:47:23;2.50;;;1.30;;
75990;SDS011;64673;52.276;10.560;2023-12-20T00:49:48;4.70;;;2.20;;
75990;SDS011;64673;52.276;10.560;2023-12-20T00:52:13;3.63;;;2.03;;
75990;SDS011;64673;52.276;10.560;2023-12-20T00:54:39;2.78;;;1.35;;
75990;SDS011;64673;52.276;10.560;2023-12-20T00:57:04;4.18;;;2.53;;
75990;SDS011;64673;52.276;10.560;2023-12-20T00:59:30;4.20;;;2.22;;
75990;SDS011;64673;52.276;10.560;2023-12-20T01:01:55;4.20;;;2.28;;
75990;SDS011;64673;52.276;10.560;2023-12-20T01:04:20;4.78;;;2.78;;
75990;SDS011;64673;52.276;10.560;2023-12-20T01:06:46;3.00;;;1.80;;
75990;SDS011;64673;52.276;10.560;2023-12-20T01:09:11;3.05;;;1.35;;
75990;SDS011;64673;52.276;10.560;2023-12-20T01:11:37;2.95;;;1.67;;
75990;SDS011;64673;52.276;10.560;2023-12-20T01:14:02;5.20;;;2.58;;
75990;SDS011;64673;52.276;10.560;2023-12-20T01:16:28;3.40;;;2.05;;
75990;SDS011;64673;52.276;10.560;2023-12-20T01:18:53;3.80;;;2.10;;
75990;SDS011;64673;52.276;10.560;2023-12-20T01:21:18;2.33;;;1.23;;
75990;SDS011;64673;52.276;10.560;2023-12-20T01:23:44;4.90;;;3.20;;
75990;SDS011;64673;52.276;10.560;2023-12-20T01:26:09;4.72;;;2.13;;
75990;SDS011;64673;52.276;10.560;2023-12-20T01:28:34;19.92;;;3.10;;
75990;SDS011;64673;52.276;10.560;2023-12-20T01:30:59;5.95;;;2.53;;
75990;SDS011;64673;52.276;10.560;2023-12-20T01:33:25;6.20;;;1.88;;
75990;SDS011;64673;52.276;10.560;2023-12-20T01:35:50;5.95;;;2.47;;
75990;SDS011;64673;52.276;10.560;2023-12-20T01:38:15;3.65;;;2.28;;
75990;SDS011;64673;52.276;10.560;2023-12-20T01:40:43;5.95;;;2.03;;
75990;SDS011;64673;52.276;10.560;2023-12-20T01:43:09;5.80;;;2.20;;
75990;SDS011;64673;52.276;10.560;2023-12-20T01:45:34;1.85;;;1.05;;
75990;SDS011;64673;52.276;10.560;2023-12-20T01:48:00;11.75;;;1.50;;
75990;SDS011;64673;52.276;10.560;2023-12-20T01:50:27;1.48;;;0.82;;
75990;SDS011;64673;52.276;10.560;2023-12-20T01:52:54;11.05;;;1.13;;
75990;SDS011;64673;52.276;10.560;2023-12-20T01:55:22;2.42;;;1.63;;
75990;SDS011;64673;52.276;10.560;2023-12-20T01:57:49;4.05;;;1.13;;
75990;SDS011;64673;52.276;10.560;2023-12-20T02:00:15;2.00;;;0.95;;
75990;SDS011;64673;52.276;10.560;2023-12-20T02:02:42;2.17;;;1.10;;
75990;SDS011;64673;52.276;10.560;2023-12-20T02:05:09;2.95;;;0.52;;
75990;SDS011;64673;52.276;10.560;2023-12-20T02:07:35;0.57;;;0.57;;
75990;SDS011;64673;52.276;10.560;2023-12-20T02:10:01;0.60;;;0.35;;
75990;SDS011;64673;52.276;10.560;2023-12-20T02:12:27;1.98;;;1.00;;
75990;SDS011;64673;52.276;10.560;2023-12-20T02:14:52;3.33;;;1.58;;
75990;SDS011;64673;52.276;10.560;2023-12-20T02:17:19;3.92;;;0.73;;
75990;SDS011;64673;52.276;10.560;2023-12-20T02:19:44;4.80;;;0.85;;
75990;SDS011;64673;52.276;10.560;2023-12-20T02:22:10;1.95;;;0.68;;
75990;SDS011;64673;52.276;10.560;2023-12-20T02:24:36;1.17;;;0.30;;
75990;SDS011;64673;52.276;10.560;2023-12-20T02:27:01;1.80;;;0.77;;
75990;SDS011;64673;52.276;10.560;2023-12-20T02:29:27;2.92;;;1.13;;
75990;SDS011;64673;52.276;10.560;2023-12-20T02:31:52;2.42;;;1.55;;
75990;SDS011;64673;52.276;10.560;2023-12-20T02:34:17;3.00;;;0.82;;
75990;SDS011;64673;52.276;10.560;2023-12-20T02:36:43;1.77;;;0.87;;
75990;SDS011;64673;52.276;10.560;2023-12-20T02:39:08;0.67;;;0.57;;
75990;SDS011;64673;52.276;10.560;2023-12-20T02:41:33;2.22;;;0.82;;
75990;SDS011;64673;52.276;10.560;2023-12-20T02:43:59;0.68;;;0.35;;
75990;SDS011;64673;52.276;10.560;2023-12-20T02:46:27;4.10;;;1.33;;
75990;SDS011;64673;52.276;10.560;2023-12-20T02:48:52;4.63;;;1.65;;
75990;SDS011;64673;52.276;10.560;2023-12-20T02:51:17;3.58;;;1.60;;
75990;SDS011;64673;52.276;10.560;2023-12-20T02:53:42;2.88;;;0.43;;
75990;SDS011;64673;52.276;10.560;2023-12-20T02:56:08;0.55;;;0.10;;
75990;SDS011;64673;52.276;10.560;2023-12-20T02:58:33;0.30;;;0.20;;
75990;SDS011;64673;52.276;10.560;2023-12-20T03:00:58;0.70;;;0.55;;
75990;SDS011;64673;52.276;10.560;2023-12-20T03:03:24;0.45;;;0.10;;
75990;SDS011;64673;52.276;10.560;2023-12-20T03:05:50;2.85;;;0.40;;
75990;SDS011;64673;52.276;10.560;2023-12-20T03:08:15;0.08;;;0.00;;
75990;SDS011;64673;52.276;10.560;2023-12-20T03:10:40;4.47;;;0.30;;
75990;SDS011;64673;52.276;10.560;2023-12-20T03:13:06;0.30;;;0.22;;
75990;SDS011;64673;52.276;10.560;2023-12-20T03:15:31;3.67;;;0.55;;
75990;SDS011;64673;52.276;10.560;2023-12-20T03:17:56;1.83;;;0.17;;
75990;SDS011;64673;52.276;10.560;2023-12-20T03:20:24;0.32;;;0.20;;
75990;SDS011;64673;52.276;10.560;2023-12-20T03:22:50;2.90;;;0.32;;
75990;SDS011;64673;52.276;10.560;2023-12-20T03:25:16;0.30;;;0.30;;
75990;SDS011;64673;52.276;10.560;2023-12-20T03:27:41;9.02;;;0.65;;
75990;SDS011;64673;52.276;10.560;2023-12-20T03:30:07;0.15;;;0.10;;
75990;SDS011;64673;52.276;10.560;2023-12-20T03:32:32;0.00;;;0.00;;
75990;SDS011;64673;52.276;10.560;2023-12-20T03:34:57;7.68;;;0.30;;
75990;SDS011;64673;52.276;10.560;2023-12-20T03:37:23;8.18;;;0.50;;
75990;SDS011;64673;52.276;10.560;2023-12-20T03:39:48;2.53;;;0.30;;
75990;SDS011;64673;52.276;10.560;2023-12-20T03:42:13;0.70;;;0.27;;
75990;SDS011;64673;52.276;10.560;2023-12-20T03:44:39;0.00;;;0.00;;
75990;SDS011;64673;52.276;10.560;2023-12-20T03:47:05;0.82;;;0.32;;
75990;SDS011;64673;52.276;10.560;2023-12-20T03:49:31;0.50;;;0.50;;
75990;SDS011;64673;52.276;10.560;2023-12-20T03:51:56;0.13;;;0.10;;
75990;SDS011;64673;52.276;10.560;2023-12-20T03:54:21;1.20;;;0.20;;
75990;SDS011;64673;52.276;10.560;2023-12-20T03:56:47;2.05;;;0.75;;
75990;SDS011;64673;52.276;10.560;2023-12-20T03:59:12;0.20;;;0.20;;
75990;SDS011;64673;52.276;10.560;2023-12-20T04:01:37;0.30;;;0.00;;
75990;SDS011;64673;52.276;10.560;2023-12-20T04:04:03;2.47;;;1.08;;
75990;SDS011;64673;52.276;10.560;2023-12-20T04:06:28;1.25;;;0.45;;
75990;SDS011;64673;52.276;10.560;2023-12-20T04:08:54;0.35;;;0.10;;
75990;SDS011;64673;52.276;10.560;2023-12-20T04:11:19;0.32;;;0.13;;
75990;SDS011;64673;52.276;10.560;2023-12-20T04:13:44;0.20;;;0.20;;
75990;SDS011;64673;52.276;10.560;2023-12-20T04:16:10;2.92;;;0.40;;
75990;SDS011;64673;52.276;10.560;2023-12-20T04:18:35;1.15;;;0.35;;
75990;SDS011;64673;52.276;10.560;2023-12-20T04:21:01;1.10;;;1.00;;
75990;SDS011;64673;52.276;10.560;2023-12-20T04:23:26;2.45;;;0.28;;
75990;SDS011;64673;52.276;10.560;2023-12-20T04:25:52;1.20;;;0.10;;
75990;SDS011;64673;52.276;10.560;2023-12-20T04:28:18;0.30;;;0.30;;
75990;SDS011;64673;52.276;10.560;2023-12-20T04:30:43;0.43;;;0.13;;
75990;SDS011;64673;52.276;10.560;2023-12-20T04:33:08;5.90;;;0.53;;
75990;SDS011;64673;52.276;10.560;2023-12-20T04:35:34;0.00;;;0.00;;
75990;SDS011;64673;52.276;10.560;2023-12-20T04:37:59;0.00;;;0.00;;
75990;SDS011;64673;52.276;10.560;2023-12-20T04:40:25;1.08;;;0.20;;
75990;SDS011;64673;52.276;10.560;2023-12-20T04:42:50;0.00;;;0.00;;
75990;SDS011;64673;52.276;10.560;2023-12-20T04:45:15;8.43;;;1.40;;
75990;SDS011;64673;52.276;10.560;2023-12-20T04:47:42;0.40;;;0.25;;
75990;SDS011;64673;52.276;10.560;2023-12-20T04:50:07;5.60;;;0.75;;
75990;SDS011;64673;52.276;10.560;2023-12-20T04:52:33;0.08;;;0.08;;
75990;SDS011;64673;52.276;10.560;2023-12-20T04:54:59;0.10;;;0.10;;
75990;SDS011;64673;52.276;10.560;2023-12-20T04:57:24;0.80;;;0.80;;
75990;SDS011;64673;52.276;10.560;2023-12-20T04:59:49;0.47;;;0.28;;
75990;SDS011;64673;52.276;10.560;2023-12-20T05:02:15;0.30;;;0.25;;
75990;SDS011;64673;52.276;10.560;2023-12-20T05:04:40;1.30;;;0.38;;
75990;SDS011;64673;52.276;10.560;2023-12-20T05:07:06;0.32;;;0.15;;
75990;SDS011;64673;52.276;10.560;2023-12-20T05:09:32;0.55;;;0.40;;
75990;SDS011;64673;52.276;10.560;2023-12-20T05:11:57;0.00;;;0.00;;
75990;SDS011;64673;52.276;10.560;2023-12-20T05:14:22;0.00;;;0.00;;
75990;SDS011;64673;52.276;10.560;2023-12-20T05:16:48;5.68;;;0.57;;
75990;SDS011;64673;52.276;10.560;2023-12-20T05:19:13;0.55;;;0.52;;
75990;SDS011;64673;52.276;10.560;2023-12-20T05:21:39;1.88;;;0.95;;
75990;SDS011;64673;52.276;10.560;2023-12-20T05:24:04;0.10;;;0.00;;
75990;SDS011;64673;52.276;10.560;2023-12-20T05:26:30;0.20;;;0.20;;
75990;SDS011;64673;52.276;10.560;2023-12-20T05:28:55;1.55;;;0.20;;
75990;SDS011;64673;52.276;10.560;2023-12-20T05:31:21;0.82;;;0.20;;
75990;SDS011;64673;52.276;10.560;2023-12-20T05:33:46;0.93;;;0.40;;
75990;SDS011;64673;52.276;10.560;2023-12-20T05:36:11;0.50;;;0.25;;
75990;SDS011;64673;52.276;10.560;2023-12-20T05:38:38;2.38;;;0.80;;
75990;SDS011;64673;52.276;10.560;2023-12-20T05:41:04;0.52;;;0.13;;
75990;SDS011;64673;52.276;10.560;2023-12-20T05:43:29;1.60;;;0.40;;
75990;SDS011;64673;52.276;10.560;2023-12-20T05:45:55;1.05;;;0.38;;
75990;SDS011;64673;52.276;10.560;2023-12-20T05:48:20;2.08;;;0.43;;
75990;SDS011;64673;52.276;10.560;2023-12-20T05:50:45;9.43;;;0.63;;
75990;SDS011;64673;52.276;10.560;2023-12-20T05:53:11;0.52;;;0.25;;
75990;SDS011;64673;52.276;10.560;2023-12-20T05:55:36;0.95;;;0.25;;
75990;SDS011;64673;52.276;10.560;2023-12-20T05:58:01;0.40;;;0.30;;
75990;SDS011;64673;52.276;10.560;2023-12-20T06:00:28;0.80;;;0.30;;
75990;SDS011;64673;52.276;10.560;2023-12-20T06:02:53;0.17;;;0.17;;
75990;SDS011;64673;52.276;10.560;2023-12-20T06:05:18;1.90;;;0.55;;
75990;SDS011;64673;52.276;10.560;2023-12-20T06:07:44;0.68;;;0.50;;
75990;SDS011;64673;52.276;10.560;2023-12-20T06:10:12;1.77;;;0.55;;
75990;SDS011;64673;52.276;10.560;2023-12-20T06:12:38;5.30;;;1.02;;
75990;SDS011;64673;52.276;10.560;2023-12-20T06:15:04;0.75;;;0.40;;
75990;SDS011;64673;52.276;10.560;2023-12-20T06:17:30;0.03;;;0.03;;
75990;SDS011;64673;52.276;10.560;2023-12-20T06:19:56;0.22;;;0.20;;
75990;SDS011;64673;52.276;10.560;2023-12-20T06:22:21;1.10;;;0.38;;
75990;SDS011;64673;52.276;10.560;2023-12-20T06:24:47;0.30;;;0.30;;
75990;SDS011;64673;52.276;10.560;2023-12-20T06:27:12;2.72;;;0.75;;
75990;SDS011;64673;52.276;10.560;2023-12-20T06:29:38;1.45;;;0.63;;
75990;SDS011;64673;52.276;10.560;2023-12-20T06:32:03;2.20;;;0.68;;
75990;SDS011;64673;52.276;10.560;2023-12-20T06:34:29;0.52;;;0.40;;
75990;SDS011;64673;52.276;10.560;2023-12-20T06:36:54;1.02;;;0.40;;
75990;SDS011;64673;52.276;10.560;2023-12-20T06:39:20;0.10;;;0.10;;
75990;SDS011;64673;52.276;10.560;2023-12-20T06:41:45;2.13;;;0.20;;
75990;SDS011;64673;52.276;10.560;2023-12-20T06:44:10;0.90;;;0.25;;
75990;SDS011;64673;52.276;10.560;2023-12-20T06:46:36;0.40;;;0.40;;
75990;SDS011;64673;52.276;10.560;2023-12-20T06:49:01;2.65;;;0.60;;
75990;SDS011;64673;52.276;10.560;2023-12-20T06:51:27;0.80;;;0.60;;
75990;SDS011;64673;52.276;10.560;2023-12-20T06:53:53;1.05;;;0.82;;
75990;SDS011;64673;52.276;10.560;2023-12-20T06:56:18;1.05;;;0.50;;
75990;SDS011;64673;52.276;10.560;2023-12-20T06:58:44;4.43;;;0.82;;
75990;SDS011;64673;52.276;10.560;2023-12-20T07:01:13;5.80;;;1.05;;
75990;SDS011;64673;52.276;10.560;2023-12-20T07:03:38;0.77;;;0.57;;
75990;SDS011;64673;52.276;10.560;2023-12-20T07:06:04;1.92;;;0.50;;
75990;SDS011;64673;52.276;10.560;2023-12-20T07:08:30;2.20;;;0.65;;
75990;SDS011;64673;52.276;10.560;2023-12-20T07:10:55;0.35;;;0.20;;
75990;SDS011;64673;52.276;10.560;2023-12-20T07:13:20;9.50;;;0.67;;
75990;SDS011;64673;52.276;10.560;2023-12-20T07:15:47;2.70;;;0.28;;
75990;SDS011;64673;52.276;10.560;2023-12-20T07:18:12;7.88;;;0.80;;
75990;SDS011;64673;52.276;10.560;2023-12-20T07:20:37;15.65;;;1.27;;
75990;SDS011;64673;52.276;10.560;2023-12-20T07:23:03;0.30;;;0.20;;
75990;SDS011;64673;52.276;10.560;2023-12-20T07:25:28;1.95;;;0.22;;
75990;SDS011;64673;52.276;10.560;2023-12-20T07:27:55;6.68;;;1.55;;
75990;SDS011;64673;52.276;10.560;2023-12-20T07:30:20;5.82;;;0.50;;
75990;SDS011;64673;52.276;10.560;2023-12-20T07:32:45;0.77;;;0.28;;
75990;SDS011;64673;52.276;10.560;2023-12-20T07:35:12;1.75;;;0.55;;
75990;SDS011;64673;52.276;10.560;2023-12-20T07:37:37;2.03;;;0.30;;
75990;SDS011;64673;52.276;10.560;2023-12-20T07:40:03;0.10;;;0.10;;
75990;SDS011;64673;52.276;10.560;2023-12-20T07:42:28;4.43;;;0.28;;
75990;SDS011;64673;52.276;10.560;2023-12-20T07:44:54;1.40;;;0.15;;
75990;SDS011;64673;52.276;10.560;2023-12-20T07:47:20;1.40;;;0.38;;
75990;SDS011;64673;52.276;10.560;2023-12-20T07:49:47;0.52;;;0.30;;
75990;SDS011;64673;52.276;10.560;2023-12-20T07:52:13;1.80;;;0.10;;
75990;SDS011;64673;52.276;10.560;2023-12-20T07:54:39;9.30;;;1.02;;
75990;SDS011;64673;52.276;10.560;2023-12-20T07:57:04;0.57;;;0.52;;
75990;SDS011;64673;52.276;10.560;2023-12-20T07:59:30;4.05;;;0.93;;
75990;SDS011;64673;52.276;10.560;2023-12-20T08:01:55;0.40;;;0.20;;
75990;SDS011;64673;52.276;10.560;2023-12-20T08:04:21;2.92;;;0.63;;
75990;SDS011;64673;52.276;10.560;2023-12-20T08:06:46;2.38;;;1.63;;
75990;SDS011;64673;52.276;10.560;2023-12-20T08:09:11;10.57;;;0.52;;
75990;SDS011;64673;52.276;10.560;2023-12-20T08:11:37;1.48;;;0.70;;
75990;SDS011;64673;52.276;10.560;2023-12-20T08:14:02;1.30;;;0.40;;
75990;SDS011;64673;52.276;10.560;2023-12-20T08:16:27;8.38;;;0.38;;
75990;SDS011;64673;52.276;10.560;2023-12-20T08:18:53;1.42;;;0.70;;
75990;SDS011;64673;52.276;10.560;2023-12-20T08:21:18;1.48;;;0.60;;
75990;SDS011;64673;52.276;10.560;2023-12-20T08:23:45;1.73;;;0.47;;
75990;SDS011;64673;52.276;10.560;2023-12-20T08:26:12;1.20;;;0.90;;
75990;SDS011;64673;52.276;10.560;2023-12-20T08:28:37;2.78;;;1.02;;
75990;SDS011;64673;52.276;10.560;2023-12-20T08:31:03;2.05;;;0.63;;
75990;SDS011;64673;52.276;10.560;2023-12-20T08:33:28;7.32;;;1.67;;
75990;SDS011;64673;52.276;10.560;2023-12-20T08:35:54;2.42;;;0.95;;
75990;SDS011;64673;52.276;10.560;2023-12-20T08:38:19;1.38;;;0.88;;
75990;SDS011;64673;52.276;10.560;2023-12-20T08:40:44;0.57;;;0.45;;
75990;SDS011;64673;52.276;10.560;2023-12-20T08:43:10;1.55;;;0.77;;
75990;SDS011;64673;52.276;10.560;2023-12-20T08:45:35;2.63;;;0.80;;
75990;SDS011;64673;52.276;10.560;2023-12-20T08:48:01;4.13;;;0.30;;
75990;SDS011;64673;52.276;10.560;2023-12-20T08:50:26;0.43;;;0.30;;
75990;SDS011;64673;52.276;10.560;2023-12-20T08:52:52;0.70;;;0.35;;
75990;SDS011;64673;52.276;10.560;2023-12-20T08:55:17;0.82;;;0.57;;
75990;SDS011;64673;52.276;10.560;2023-12-20T08:57:44;0.50;;;0.30;;
75990;SDS011;64673;52.276;10.560;2023-12-20T09:00:09;4.95;;;0.82;;
75990;SDS011;64673;52.276;10.560;2023-12-20T09:02:35;3.97;;;0.65;;
75990;SDS011;64673;52.276;10.560;2023-12-20T09:05:01;1.15;;;0.52;;
75990;SDS011;64673;52.276;10.560;2023-12-20T09:07:27;0.68;;;0.40;;
75990;SDS011;64673;52.276;10.560;2023-12-20T09:09:55;2.00;;;0.52;;
75990;SDS011;64673;52.276;10.560;2023-12-20T09:12:21;2.33;;;1.00;;
75990;SDS011;64673;52.276;10.560;2023-12-20T09:14:47;0.22;;;0.20;;
75990;SDS011;64673;52.276;10.560;2023-12-20T09:17:13;2.08;;;0.32;;
75990;SDS011;64673;52.276;10.560;2023-12-20T09:19:38;2.60;;;0.60;;
75990;SDS011;64673;52.276;10.560;2023-12-20T09:22:04;0.32;;;0.32;;
75990;SDS011;64673;52.276;10.560;2023-12-20T09:24:31;9.57;;;1.52;;
75990;SDS011;64673;52.276;10.560;2023-12-20T09:26:56;0.75;;;0.38;;
75990;SDS011;64673;52.276;10.560;2023-12-20T09:29:22;1.30;;;0.75;;
75990;SDS011;64673;52.276;10.560;2023-12-20T09:31:48;0.20;;;0.10;;
75990;SDS011;64673;52.276;10.560;2023-12-20T09:34:14;1.83;;;0.63;;
75990;SDS011;64673;52.276;10.560;2023-12-20T09:36:42;0.98;;;0.32;;
75990;SDS011;64673;52.276;10.560;2023-12-20T09:39:12;3.65;;;0.55;;
75990;SDS011;64673;52.276;10.560;2023-12-20T09:41:40;1.45;;;0.43;;
75990;SDS011;64673;52.276;10.560;2023-12-20T09:44:10;0.30;;;0.22;;
75990;SDS011;64673;52.276;10.560;2023-12-20T09:46:39;0.47;;;0.25;;
75990;SDS011;64673;52.276;10.560;2023-12-20T09:49:08;1.85;;;0.17;;
75990;SDS011;64673;52.276;10.560;2023-12-20T09:51:34;7.47;;;1.13;;
75990;SDS011;64673;52.276;10.560;2023-12-20T09:54:01;4.47;;;0.45;;
75990;SDS011;64673;52.276;10.560;2023-12-20T09:56:30;2.15;;;0.40;;
75990;SDS011;64673;52.276;10.560;2023-12-20T09:58:55;1.92;;;0.43;;
75990;SDS011;64673;52.276;10.560;2023-12-20T10:01:21;7.82;;;0.68;;
75990;SDS011;64673;52.276;10.560;2023-12-20T10:03:48;0.20;;;0.10;;
75990;SDS011;64673;52.276;10.560;2023-12-20T10:06:16;0.75;;;0.45;;
75990;SDS011;64673;52.276;10.560;2023-12-20T10:08:41;0.70;;;0.20;;
75990;SDS011;64673;52.276;10.560;2023-12-20T10:11:07;2.40;;;0.40;;
75990;SDS011;64673;52.276;10.560;2023-12-20T10:13:32;3.55;;;0.80;;
75990;SDS011;64673;52.276;10.560;2023-12-20T10:15:57;1.02;;;0.20;;
75990;SDS011;64673;52.276;10.560;2023-12-20T10:18:23;1.63;;;0.28;;
75990;SDS011;64673;52.276;10.560;2023-12-20T10:20:48;3.45;;;0.40;;
75990;SDS011;64673;52.276;10.560;2023-12-20T10:23:15;8.05;;;0.98;;
75990;SDS011;64673;52.276;10.560;2023-12-20T10:25:41;1.52;;;0.30;;
75990;SDS011;64673;52.276;10.560;2023-12-20T10:28:14;0.75;;;0.35;;
75990;SDS011;64673;52.276;10.560;2023-12-20T10:30:46;0.60;;;0.35;;
75990;SDS011;64673;52.276;10.560;2023-12-20T10:33:11;0.55;;;0.30;;
75990;SDS011;64673;52.276;10.560;2023-12-20T10:35:37;0.57;;;0.45;;
75990;SDS011;64673;52.276;10.560;2023-12-20T10:38:04;1.45;;;0.17;;
75990;SDS011;64673;52.276;10.560;2023-12-20T10:40:30;2.85;;;0.30;;
75990;SDS011;64673;52.276;10.560;2023-12-20T10:42:59;1.20;;;0.38;;
75990;SDS011;64673;52.276;10.560;2023-12-20T10:45:26;0.40;;;0.28;;
75990;SDS011;64673;52.276;10.560;2023-12-20T10:47:51;4.55;;;0.70;;
75990;SDS011;64673;52.276;10.560;2023-12-20T10:50:18;1.70;;;0.75;;
75990;SDS011;64673;52.276;10.560;2023-12-20T10:52:44;1.27;;;0.20;;
75990;SDS011;64673;52.276;10.560;2023-12-20T10:55:12;4.32;;;1.35;;
75990;SDS011;64673;52.276;10.560;2023-12-20T10:57:38;0.50;;;0.32;;
75990;SDS011;64673;52.276;10.560;2023-12-20T11:00:03;4.75;;;1.45;;
75990;SDS011;64673;52.276;10.560;2023-12-20T11:02:34;1.35;;;0.52;;
75990;SDS011;64673;52.276;10.560;2023-12-20T11:07:43;2.20;;;0.82;;
75990;SDS011;64673;52.276;10.560;2023-12-20T11:10:16;0.82;;;0.20;;
75990;SDS011;64673;52.276;10.560;2023-12-20T11:13:07;0.85;;;0.28;;
75990;SDS011;64673;52.276;10.560;2023-12-20T11:15:37;6.15;;;0.55;;
75990;SDS011;64673;52.276;10.560;2023-12-20T11:18:03;0.88;;;0.52;;
75990;SDS011;64673;52.276;10.560;2023-12-20T11:20:38;0.57;;;0.40;;
75990;SDS011;64673;52.276;10.560;2023-12-20T11:23:05;0.75;;;0.20;;
75990;SDS011;64673;52.276;10.560;2023-12-20T11:25:47;3.28;;;0.40;;
75990;SDS011;64673;52.276;10.560;2023-12-20T11:28:16;0.47;;;0.40;;
75990;SDS011;64673;52.276;10.560;2023-12-20T11:30:50;1.58;;;0.77;;
75990;SDS011;64673;52.276;10.560;2023-12-20T11:33:23;1.30;;;0.68;;
75990;SDS011;64673;52.276;10.560;2023-12-20T11:35:50;0.70;;;0.65;;
75990;SDS011;64673;52.276;10.560;2023-12-20T11:38:19;1.08;;;0.75;;
75990;SDS011;64673;52.276;10.560;2023-12-20T11:40:47;1.73;;;0.57;;
75990;SDS011;64673;52.276;10.560;2023-12-20T11:43:29;4.43;;;0.95;;
75990;SDS011;64673;52.276;10.560;2023-12-20T11:45:56;0.65;;;0.60;;
75990;SDS011;64673;52.276;10.560;2023-12-20T11:48:28;0.55;;;0.22;;
75990;SDS011;64673;52.276;10.560;2023-12-20T11:53:22;1.85;;;1.02;;
75990;SDS011;64673;52.276;10.560;2023-12-20T11:55:50;0.10;;;0.10;;
75990;SDS011;64673;52.276;10.560;2023-12-20T11:58:16;2.05;;;0.90;;
75990;SDS011;64673;52.276;10.560;2023-12-20T12:00:44;1.33;;;0.55;;
75990;SDS011;64673;52.276;10.560;2023-12-20T12:03:09;0.75;;;0.35;;
75990;SDS011;64673;52.276;10.560;2023-12-20T12:05:35;0.63;;;0.35;;
75990;SDS011;64673;52.276;10.560;2023-12-20T12:08:01;0.88;;;0.75;;
75990;SDS011;64673;52.276;10.560;2023-12-20T12:10:27;0.85;;;0.35;;
75990;SDS011;64673;52.276;10.560;2023-12-20T12:12:53;1.95;;;0.85;;
75990;SDS011;64673;52.276;10.560;2023-12-20T12:15:19;0.43;;;0.43;;
75990;SDS011;64673;52.276;10.560;2023-12-20T12:17:44;1.02;;;0.20;;
75990;SDS011;64673;52.276;10.560;2023-12-20T12:20:19;5.38;;;0.60;;
75990;SDS011;64673;52.276;10.560;2023-12-20T12:22:45;1.23;;;0.60;;
75990;SDS011;64673;52.276;10.560;2023-12-20T12:25:12;1.42;;;0.60;;
75990;SDS011;64673;52.276;10.560;2023-12-20T12:27:41;3.22;;;0.80;;
75990;SDS011;64673;52.276;10.560;2023-12-20T12:30:07;0.60;;;0.28;;
75990;SDS011;64673;52.276;10.560;2023-12-20T12:32:34;0.77;;;0.70;;
75990;SDS011;64673;52.276;10.560;2023-12-20T12:35:00;0.10;;;0.10;;
75990;SDS011;64673;52.276;10.560;2023-12-20T12:37:28;0.17;;;0.15;;
75990;SDS011;64673;52.276;10.560;2023-12-20T12:39:53;1.50;;;0.40;;
75990;SDS011;64673;52.276;10.560;2023-12-20T12:42:19;2.70;;;0.80;;
75990;SDS011;64673;52.276;10.560;2023-12-20T12:44:46;11.70;;;0.95;;
75990;SDS011;64673;52.276;10.560;2023-12-20T12:47:11;0.57;;;0.32;;
75990;SDS011;64673;52.276;10.560;2023-12-20T12:49:37;10.60;;;1.40;;
75990;SDS011;64673;52.276;10.560;2023-12-20T12:52:02;0.15;;;0.15;;
75990;SDS011;64673;52.276;10.560;2023-12-20T12:54:28;0.57;;;0.20;;
75990;SDS011;64673;52.276;10.560;2023-12-20T12:56:53;0.28;;;0.20;;
75990;SDS011;64673;52.276;10.560;2023-12-20T12:59:19;0.15;;;0.03;;
75990;SDS011;64673;52.276;10.560;2023-12-20T13:01:44;0.00;;;0.00;;
75990;SDS011;64673;52.276;10.560;2023-12-20T13:04:10;0.28;;;0.20;;
75990;SDS011;64673;52.276;10.560;2023-12-20T13:06:39;1.35;;;0.08;;
75990;SDS011;64673;52.276;10.560;2023-12-20T13:09:06;0.17;;;0.10;;
75990;SDS011;64673;52.276;10.560;2023-12-20T13:11:31;1.05;;;0.40;;
75990;SDS011;64673;52.276;10.560;2023-12-20T13:13:57;0.05;;;0.05;;
75990;SDS011;64673;52.276;10.560;2023-12-20T13:16:23;0.00;;;0.00;;
75990;SDS011;64673;52.276;10.560;2023-12-20T13:18:49;1.10;;;0.00;;
75990;SDS011;64673;52.276;10.560;2023-12-20T13:21:15;0.38;;;0.30;;
75990;SDS011;64673;52.276;10.560;2023-12-20T13:23:41;0.10;;;0.03;;
75990;SDS011;64673;52.276;10.560;2023-12-20T13:26:06;0.20;;;0.00;;
75990;SDS011;64673;52.276;10.560;2023-12-20T13:28:32;0.00;;;0.00;;
75990;SDS011;64673;52.276;10.560;2023-12-20T13:30:57;1.08;;;0.00;;
75990;SDS011;64673;52.276;10.560;2023-12-20T13:33:23;0.25;;;0.10;;
75990;SDS011;64673;52.276;10.560;2023-12-20T13:35:48;0.65;;;0.35;;
75990;SDS011;64673;52.276;10.560;2023-12-20T13:38:14;0.00;;;0.00;;
75990;SDS011;64673;52.276;10.560;2023-12-20T13:40:39;0.08;;;0.03;;
75990;SDS011;64673;52.276;10.560;2023-12-20T13:43:04;0.08;;;0.03;;
75990;SDS011;64673;52.276;10.560;2023-12-20T13:45:31;0.30;;;0.20;;
75990;SDS011;64673;52.276;10.560;2023-12-20T13:47:56;0.32;;;0.25;;
75990;SDS011;64673;52.276;10.560;2023-12-20T13:50:23;0.00;;;0.00;;
75990;SDS011;64673;52.276;10.560;2023-12-20T13:52:49;0.63;;;0.17;;
75990;SDS011;64673;52.276;10.560;2023-12-20T13:55:14;0.30;;;0.00;;
75990;SDS011;64673;52.276;10.560;2023-12-20T13:57:40;0.10;;;0.00;;
75990;SDS011;64673;52.276;10.560;2023-12-20T14:00:06;0.15;;;0.00;;
75990;SDS011;64673;52.276;10.560;2023-12-20T14:02:39;1.60;;;0.50;;
75990;SDS011;64673;52.276;10.560;2023-12-20T14:05:05;0.00;;;0.00;;
75990;SDS011;64673;52.276;10.560;2023-12-20T14:07:31;0.20;;;0.00;;
75990;SDS011;64673;52.276;10.560;2023-12-20T14:09:56;0.55;;;0.20;;
75990;SDS011;64673;52.276;10.560;2023-12-20T14:12:22;0.30;;;0.22;;
75990;SDS011;64673;52.276;10.560;2023-12-20T14:14:47;0.28;;;0.28;;
75990;SDS011;64673;52.276;10.560;2023-12-20T14:17:12;0.43;;;0.25;;
75990;SDS011;64673;52.276;10.560;2023-12-20T14:19:38;0.35;;;0.35;;
75990;SDS011;64673;52.276;10.560;2023-12-20T14:22:04;1.95;;;0.65;;
75990;SDS011;64673;52.276;10.560;2023-12-20T14:24:30;0.00;;;0.00;;
75990;SDS011;64673;52.276;10.560;2023-12-20T14:26:55;0.00;;;0.00;;
75990;SDS011;64673;52.276;10.560;2023-12-20T14:29:21;0.80;;;0.25;;
75990;SDS011;64673;52.276;10.560;2023-12-20T14:31:46;0.45;;;0.32;;